KPSC/PSC METAR and TAF weather

Enter ICAO airport designator
Station Type Date Time Source
KPSC METAR 2021/07/27 21:53 UTC NOAA

KPSC 272153Z 12004KT 10SM FEW065 BKN110 28/12 A2996 RMK AO2 RAB18E37 SLP140 P0000 T02780122


Station Type Date Time Source
KPSC Decoded METAR 2021/07/27 21:53 UTC NOAA

TRI-CITIES AIRPORT, WA, United States (KPSC) 46-16N 119-07W 121M
Jul 27, 2021 - 05:53 PM EDT / 2021.07.27 2153 UTC
Wind: from the ESE (120 degrees) at 5 MPH (4 KT):0
Visibility: 10 mile(s):0
Sky conditions: mostly cloudy
Precipitation last hour: A trace
Temperature: 82.0 F (27.8 C)
Dew Point: 54.0 F (12.2 C)
Relative Humidity: 38%
Pressure (altimeter): 29.96 in. Hg (1014 hPa)
ob: KPSC 272153Z 12004KT 10SM FEW065 BKN110 28/12 A2996 RMK AO2 RAB18E37 SLP140 P0000 T02780122
cycle: 22

Station Type Date Time Source
KPSC TAF 2021/07/27 18:36 UTC NOAA

TAF KPSC 271733Z 2718/2818 VRB04KT P6SM VCSH FEW100 BKN130
FM280600 20005KT P6SM OVC150

Example: see airport list